sensor_id;sensor_type;location;lat;lon;timestamp;P1;durP1;ratioP1;P2;durP2;ratioP2
33794;SDS011;51430;52.242;21.118;2023-06-10T00:00:07;10.70;;;9.00;;
33794;SDS011;51430;52.242;21.118;2023-06-10T00:03:49;10.60;;;9.10;;
33794;SDS011;51430;52.242;21.118;2023-06-10T00:06:58;9.20;;;8.40;;
33794;SDS011;51430;52.242;21.118;2023-06-10T00:27:41;9.00;;;6.90;;
33794;SDS011;51430;52.242;21.118;2023-06-10T00:31:17;11.00;;;7.40;;
33794;SDS011;51430;52.242;21.118;2023-06-10T00:34:06;8.00;;;7.10;;
33794;SDS011;51430;52.242;21.118;2023-06-10T00:52:28;8.30;;;6.10;;
33794;SDS011;51430;52.242;21.118;2023-06-10T01:06:41;6.80;;;5.50;;
33794;SDS011;51430;52.242;21.118;2023-06-10T01:13:32;7.00;;;5.40;;
33794;SDS011;51430;52.242;21.118;2023-06-10T01:16:35;8.60;;;5.40;;
33794;SDS011;51430;52.242;21.118;2023-06-10T01:19:54;6.70;;;5.20;;
33794;SDS011;51430;52.242;21.118;2023-06-10T01:23:28;6.00;;;5.00;;
33794;SDS011;51430;52.242;21.118;2023-06-10T01:26:47;9.60;;;5.50;;
33794;SDS011;51430;52.242;21.118;2023-06-10T01:30:31;6.80;;;5.10;;
33794;SDS011;51430;52.242;21.118;2023-06-10T01:33:41;6.20;;;4.80;;
33794;SDS011;51430;52.242;21.118;2023-06-10T01:41:33;6.70;;;4.90;;
33794;SDS011;51430;52.242;21.118;2023-06-10T01:44:49;7.90;;;5.00;;
33794;SDS011;51430;52.242;21.118;2023-06-10T01:48:30;8.50;;;5.00;;
33794;SDS011;51430;52.242;21.118;2023-06-10T01:52:02;7.00;;;4.90;;
33794;SDS011;51430;52.242;21.118;2023-06-10T01:55:35;6.50;;;5.10;;
33794;SDS011;51430;52.242;21.118;2023-06-10T01:59:17;5.90;;;4.80;;
33794;SDS011;51430;52.242;21.118;2023-06-10T02:02:57;7.80;;;4.70;;
33794;SDS011;51430;52.242;21.118;2023-06-10T02:06:21;7.40;;;4.80;;
33794;SDS011;51430;52.242;21.118;2023-06-10T02:10:14;6.80;;;4.80;;
33794;SDS011;51430;52.242;21.118;2023-06-10T02:13:48;7.00;;;4.90;;
33794;SDS011;51430;52.242;21.118;2023-06-10T02:18:36;8.40;;;4.70;;
33794;SDS011;51430;52.242;21.118;2023-06-10T02:22:12;6.10;;;4.80;;
33794;SDS011;51430;52.242;21.118;2023-06-10T02:25:06;8.00;;;5.10;;
33794;SDS011;51430;52.242;21.118;2023-06-10T02:28:03;8.20;;;5.20;;
33794;SDS011;51430;52.242;21.118;2023-06-10T02:32:13;7.70;;;4.90;;
33794;SDS011;51430;52.242;21.118;2023-06-10T02:38:52;8.60;;;5.30;;
33794;SDS011;51430;52.242;21.118;2023-06-10T02:41:59;9.10;;;5.00;;
33794;SDS011;51430;52.242;21.118;2023-06-10T02:45:33;8.20;;;5.10;;
33794;SDS011;51430;52.242;21.118;2023-06-10T02:49:23;6.80;;;5.10;;
33794;SDS011;51430;52.242;21.118;2023-06-10T02:53:07;8.50;;;4.80;;
33794;SDS011;51430;52.242;21.118;2023-06-10T02:56:23;6.10;;;4.80;;
33794;SDS011;51430;52.242;21.118;2023-06-10T02:59:21;6.70;;;5.20;;
33794;SDS011;51430;52.242;21.118;2023-06-10T03:02:29;7.20;;;5.00;;
33794;SDS011;51430;52.242;21.118;2023-06-10T03:05:51;10.60;;;5.00;;
33794;SDS011;51430;52.242;21.118;2023-06-10T03:08:54;7.00;;;5.00;;
33794;SDS011;51430;52.242;21.118;2023-06-10T03:12:09;9.30;;;4.90;;
33794;SDS011;51430;52.242;21.118;2023-06-10T03:14:59;7.60;;;4.90;;
33794;SDS011;51430;52.242;21.118;2023-06-10T03:17:59;9.90;;;5.20;;
33794;SDS011;51430;52.242;21.118;2023-06-10T03:21:08;9.80;;;5.30;;
33794;SDS011;51430;52.242;21.118;2023-06-10T03:24:18;7.00;;;4.70;;
33794;SDS011;51430;52.242;21.118;2023-06-10T03:27:52;6.60;;;4.60;;
33794;SDS011;51430;52.242;21.118;2023-06-10T03:31:43;5.60;;;4.30;;
33794;SDS011;51430;52.242;21.118;2023-06-10T03:35:24;7.60;;;4.70;;
33794;SDS011;51430;52.242;21.118;2023-06-10T03:38:55;7.20;;;4.60;;
33794;SDS011;51430;52.242;21.118;2023-06-10T03:42:28;6.60;;;4.70;;
33794;SDS011;51430;52.242;21.118;2023-06-10T03:46:02;5.00;;;4.40;;
33794;SDS011;51430;52.242;21.118;2023-06-10T03:53:53;7.60;;;4.80;;
33794;SDS011;51430;52.242;21.118;2023-06-10T03:58:03;7.80;;;4.30;;
33794;SDS011;51430;52.242;21.118;2023-06-10T04:01:39;7.40;;;4.40;;
33794;SDS011;51430;52.242;21.118;2023-06-10T04:05:14;6.40;;;4.70;;
33794;SDS011;51430;52.242;21.118;2023-06-10T04:08:52;8.10;;;4.60;;
33794;SDS011;51430;52.242;21.118;2023-06-10T04:12:28;6.20;;;4.40;;
33794;SDS011;51430;52.242;21.118;2023-06-10T04:16:06;7.60;;;4.60;;
33794;SDS011;51430;52.242;21.118;2023-06-10T04:19:29;9.30;;;4.80;;
33794;SDS011;51430;52.242;21.118;2023-06-10T04:22:49;5.70;;;4.40;;
33794;SDS011;51430;52.242;21.118;2023-06-10T04:26:24;5.20;;;4.50;;
33794;SDS011;51430;52.242;21.118;2023-06-10T04:29:42;8.60;;;4.70;;
33794;SDS011;51430;52.242;21.118;2023-06-10T04:33:09;6.30;;;4.50;;
33794;SDS011;51430;52.242;21.118;2023-06-10T04:36:39;9.20;;;4.60;;
33794;SDS011;51430;52.242;21.118;2023-06-10T04:40:15;6.50;;;4.30;;
33794;SDS011;51430;52.242;21.118;2023-06-10T04:43:50;9.80;;;4.50;;
33794;SDS011;51430;52.242;21.118;2023-06-10T04:47:24;6.70;;;4.30;;
33794;SDS011;51430;52.242;21.118;2023-06-10T04:51:05;7.10;;;4.50;;
33794;SDS011;51430;52.242;21.118;2023-06-10T04:54:33;7.00;;;4.30;;
33794;SDS011;51430;52.242;21.118;2023-06-10T04:58:05;6.00;;;4.60;;
33794;SDS011;51430;52.242;21.118;2023-06-10T05:01:12;7.20;;;4.40;;
33794;SDS011;51430;52.242;21.118;2023-06-10T05:04:53;6.90;;;4.40;;
33794;SDS011;51430;52.242;21.118;2023-06-10T05:08:08;5.90;;;4.40;;
33794;SDS011;51430;52.242;21.118;2023-06-10T05:11:13;9.00;;;4.40;;
33794;SDS011;51430;52.242;21.118;2023-06-10T05:14:46;7.20;;;4.40;;
33794;SDS011;51430;52.242;21.118;2023-06-10T05:17:24;8.20;;;4.60;;
33794;SDS011;51430;52.242;21.118;2023-06-10T05:20:14;8.10;;;4.40;;
33794;SDS011;51430;52.242;21.118;2023-06-10T05:25:51;6.60;;;4.10;;
33794;SDS011;51430;52.242;21.118;2023-06-10T05:29:07;7.50;;;4.50;;
33794;SDS011;51430;52.242;21.118;2023-06-10T05:33:06;6.30;;;4.20;;
33794;SDS011;51430;52.242;21.118;2023-06-10T05:36:16;7.50;;;4.70;;
33794;SDS011;51430;52.242;21.118;2023-06-10T05:39:31;6.10;;;4.30;;
33794;SDS011;51430;52.242;21.118;2023-06-10T05:42:50;6.70;;;4.30;;
33794;SDS011;51430;52.242;21.118;2023-06-10T05:46:25;8.30;;;4.30;;
33794;SDS011;51430;52.242;21.118;2023-06-10T05:49:28;5.90;;;4.50;;
33794;SDS011;51430;52.242;21.118;2023-06-10T06:23:13;5.60;;;4.30;;
33794;SDS011;51430;52.242;21.118;2023-06-10T06:26:25;6.20;;;3.90;;
33794;SDS011;51430;52.242;21.118;2023-06-10T06:29:32;4.70;;;3.80;;
33794;SDS011;51430;52.242;21.118;2023-06-10T06:32:01;5.40;;;4.00;;
33794;SDS011;51430;52.242;21.118;2023-06-10T06:34:33;7.70;;;4.40;;
33794;SDS011;51430;52.242;21.118;2023-06-10T06:37:25;6.20;;;4.40;;
33794;SDS011;51430;52.242;21.118;2023-06-10T06:39:58;10.80;;;4.30;;
33794;SDS011;51430;52.242;21.118;2023-06-10T06:42:57;5.00;;;4.00;;
33794;SDS011;51430;52.242;21.118;2023-06-10T06:45:26;7.20;;;4.10;;
33794;SDS011;51430;52.242;21.118;2023-06-10T06:47:54;7.60;;;4.20;;
33794;SDS011;51430;52.242;21.118;2023-06-10T06:50:24;8.40;;;4.20;;
33794;SDS011;51430;52.242;21.118;2023-06-10T06:52:52;7.60;;;4.00;;
33794;SDS011;51430;52.242;21.118;2023-06-10T06:55:20;9.20;;;4.30;;
33794;SDS011;51430;52.242;21.118;2023-06-10T06:57:49;7.00;;;4.50;;
33794;SDS011;51430;52.242;21.118;2023-06-10T07:00:17;9.20;;;4.30;;
33794;SDS011;51430;52.242;21.118;2023-06-10T07:02:45;5.70;;;4.30;;
33794;SDS011;51430;52.242;21.118;2023-06-10T07:05:13;7.60;;;4.30;;
33794;SDS011;51430;52.242;21.118;2023-06-10T07:07:42;9.70;;;4.30;;
33794;SDS011;51430;52.242;21.118;2023-06-10T07:10:11;9.10;;;4.20;;
33794;SDS011;51430;52.242;21.118;2023-06-10T07:12:39;8.50;;;4.30;;
33794;SDS011;51430;52.242;21.118;2023-06-10T07:15:09;7.00;;;4.00;;
33794;SDS011;51430;52.242;21.118;2023-06-10T07:17:40;6.60;;;3.90;;
33794;SDS011;51430;52.242;21.118;2023-06-10T07:20:09;5.90;;;4.20;;
33794;SDS011;51430;52.242;21.118;2023-06-10T07:25:41;9.90;;;3.90;;
33794;SDS011;51430;52.242;21.118;2023-06-10T07:28:11;6.70;;;4.30;;
33794;SDS011;51430;52.242;21.118;2023-06-10T07:30:39;6.40;;;4.10;;
33794;SDS011;51430;52.242;21.118;2023-06-10T07:33:07;7.30;;;4.30;;
33794;SDS011;51430;52.242;21.118;2023-06-10T07:35:38;7.90;;;4.20;;
33794;SDS011;51430;52.242;21.118;2023-06-10T07:38:09;6.90;;;4.40;;
33794;SDS011;51430;52.242;21.118;2023-06-10T07:40:37;6.80;;;4.30;;
33794;SDS011;51430;52.242;21.118;2023-06-10T07:43:05;7.50;;;4.20;;
33794;SDS011;51430;52.242;21.118;2023-06-10T07:45:33;6.60;;;3.90;;
33794;SDS011;51430;52.242;21.118;2023-06-10T07:57:13;5.80;;;4.20;;
33794;SDS011;51430;52.242;21.118;2023-06-10T07:59:39;8.10;;;4.40;;
33794;SDS011;51430;52.242;21.118;2023-06-10T08:02:06;9.60;;;4.40;;
33794;SDS011;51430;52.242;21.118;2023-06-10T08:04:33;8.40;;;4.50;;
33794;SDS011;51430;52.242;21.118;2023-06-10T08:07:01;8.40;;;4.30;;
33794;SDS011;51430;52.242;21.118;2023-06-10T08:09:29;8.20;;;4.30;;
33794;SDS011;51430;52.242;21.118;2023-06-10T08:11:55;5.20;;;4.40;;
33794;SDS011;51430;52.242;21.118;2023-06-10T08:14:22;6.00;;;4.40;;
33794;SDS011;51430;52.242;21.118;2023-06-10T08:16:49;7.20;;;4.20;;
33794;SDS011;51430;52.242;21.118;2023-06-10T08:19:15;8.10;;;4.60;;
33794;SDS011;51430;52.242;21.118;2023-06-10T08:21:42;6.60;;;4.30;;
33794;SDS011;51430;52.242;21.118;2023-06-10T08:24:09;8.20;;;4.40;;
33794;SDS011;51430;52.242;21.118;2023-06-10T08:26:36;6.30;;;4.20;;
33794;SDS011;51430;52.242;21.118;2023-06-10T08:29:04;5.80;;;4.10;;
33794;SDS011;51430;52.242;21.118;2023-06-10T08:31:30;9.10;;;4.00;;
33794;SDS011;51430;52.242;21.118;2023-06-10T08:33:57;7.60;;;3.90;;
33794;SDS011;51430;52.242;21.118;2023-06-10T08:36:24;5.50;;;3.90;;
33794;SDS011;51430;52.242;21.118;2023-06-10T08:38:51;5.50;;;3.80;;
33794;SDS011;51430;52.242;21.118;2023-06-10T08:41:18;6.80;;;3.70;;
33794;SDS011;51430;52.242;21.118;2023-06-10T08:43:54;6.10;;;3.90;;
33794;SDS011;51430;52.242;21.118;2023-06-10T08:46:30;6.70;;;3.90;;
33794;SDS011;51430;52.242;21.118;2023-06-10T08:48:58;7.20;;;4.10;;
33794;SDS011;51430;52.242;21.118;2023-06-10T08:51:29;5.70;;;3.90;;
33794;SDS011;51430;52.242;21.118;2023-06-10T08:54:03;7.00;;;3.60;;
33794;SDS011;51430;52.242;21.118;2023-06-10T08:56:36;7.10;;;3.90;;
33794;SDS011;51430;52.242;21.118;2023-06-10T08:59:06;5.40;;;4.10;;
33794;SDS011;51430;52.242;21.118;2023-06-10T09:01:33;5.70;;;4.20;;
33794;SDS011;51430;52.242;21.118;2023-06-10T09:04:01;6.30;;;3.60;;
33794;SDS011;51430;52.242;21.118;2023-06-10T09:06:29;8.30;;;4.00;;
33794;SDS011;51430;52.242;21.118;2023-06-10T09:08:59;6.50;;;3.90;;
33794;SDS011;51430;52.242;21.118;2023-06-10T09:11:31;6.10;;;4.30;;
33794;SDS011;51430;52.242;21.118;2023-06-10T09:13:57;9.80;;;4.00;;
33794;SDS011;51430;52.242;21.118;2023-06-10T09:16:24;8.80;;;4.10;;
33794;SDS011;51430;52.242;21.118;2023-06-10T09:18:51;5.50;;;4.10;;
33794;SDS011;51430;52.242;21.118;2023-06-10T09:21:25;6.60;;;4.00;;
33794;SDS011;51430;52.242;21.118;2023-06-10T09:23:52;6.20;;;3.70;;
33794;SDS011;51430;52.242;21.118;2023-06-10T09:26:21;9.80;;;4.10;;
33794;SDS011;51430;52.242;21.118;2023-06-10T09:29:04;5.90;;;3.80;;
33794;SDS011;51430;52.242;21.118;2023-06-10T09:31:40;8.30;;;3.70;;
33794;SDS011;51430;52.242;21.118;2023-06-10T09:36:41;5.80;;;3.60;;
33794;SDS011;51430;52.242;21.118;2023-06-10T09:39:15;6.70;;;3.40;;
33794;SDS011;51430;52.242;21.118;2023-06-10T09:41:43;6.00;;;3.40;;
33794;SDS011;51430;52.242;21.118;2023-06-10T09:44:12;5.70;;;3.70;;
33794;SDS011;51430;52.242;21.118;2023-06-10T09:46:46;6.00;;;3.90;;
33794;SDS011;51430;52.242;21.118;2023-06-10T09:49:15;8.10;;;4.20;;
33794;SDS011;51430;52.242;21.118;2023-06-10T09:51:53;6.30;;;3.90;;
33794;SDS011;51430;52.242;21.118;2023-06-10T09:54:21;6.40;;;3.80;;
33794;SDS011;51430;52.242;21.118;2023-06-10T09:56:49;4.70;;;3.40;;
33794;SDS011;51430;52.242;21.118;2023-06-10T09:59:30;6.80;;;3.90;;
33794;SDS011;51430;52.242;21.118;2023-06-10T10:01:58;5.30;;;3.30;;
33794;SDS011;51430;52.242;21.118;2023-06-10T10:04:26;4.40;;;3.50;;
33794;SDS011;51430;52.242;21.118;2023-06-10T10:06:55;11.10;;;3.50;;
33794;SDS011;51430;52.242;21.118;2023-06-10T10:09:21;7.70;;;3.30;;
33794;SDS011;51430;52.242;21.118;2023-06-10T10:11:48;8.20;;;3.40;;
33794;SDS011;51430;52.242;21.118;2023-06-10T10:14:15;4.60;;;3.30;;
33794;SDS011;51430;52.242;21.118;2023-06-10T10:16:44;4.40;;;3.30;;
33794;SDS011;51430;52.242;21.118;2023-06-10T10:19:18;4.20;;;3.50;;
33794;SDS011;51430;52.242;21.118;2023-06-10T10:21:52;4.70;;;3.50;;
33794;SDS011;51430;52.242;21.118;2023-06-10T10:24:21;4.30;;;3.40;;
33794;SDS011;51430;52.242;21.118;2023-06-10T10:26:50;4.50;;;3.10;;
33794;SDS011;51430;52.242;21.118;2023-06-10T10:29:52;5.50;;;3.60;;
33794;SDS011;51430;52.242;21.118;2023-06-10T10:32:12;6.20;;;3.40;;
33794;SDS011;51430;52.242;21.118;2023-06-10T10:34:49;6.00;;;3.50;;
33794;SDS011;51430;52.242;21.118;2023-06-10T10:46:23;6.30;;;3.40;;
33794;SDS011;51430;52.242;21.118;2023-06-10T10:48:51;4.80;;;3.30;;
33794;SDS011;51430;52.242;21.118;2023-06-10T10:51:23;5.30;;;3.30;;
33794;SDS011;51430;52.242;21.118;2023-06-10T10:54:09;8.50;;;3.60;;
33794;SDS011;51430;52.242;21.118;2023-06-10T10:56:39;4.20;;;3.40;;
33794;SDS011;51430;52.242;21.118;2023-06-10T10:59:07;6.30;;;3.50;;
33794;SDS011;51430;52.242;21.118;2023-06-10T11:01:40;5.60;;;3.40;;
33794;SDS011;51430;52.242;21.118;2023-06-10T11:04:14;5.20;;;3.50;;
33794;SDS011;51430;52.242;21.118;2023-06-10T11:06:52;5.20;;;3.30;;
33794;SDS011;51430;52.242;21.118;2023-06-10T11:09:27;7.40;;;3.30;;
33794;SDS011;51430;52.242;21.118;2023-06-10T11:11:56;4.50;;;3.20;;
33794;SDS011;51430;52.242;21.118;2023-06-10T11:14:29;5.10;;;3.30;;
33794;SDS011;51430;52.242;21.118;2023-06-10T11:16:58;5.60;;;3.10;;
33794;SDS011;51430;52.242;21.118;2023-06-10T11:19:37;3.80;;;3.30;;
33794;SDS011;51430;52.242;21.118;2023-06-10T11:22:07;4.10;;;3.00;;
33794;SDS011;51430;52.242;21.118;2023-06-10T11:24:36;5.40;;;3.10;;
33794;SDS011;51430;52.242;21.118;2023-06-10T11:27:21;37.90;;;4.80;;
33794;SDS011;51430;52.242;21.118;2023-06-10T11:30:17;4.50;;;3.30;;
33794;SDS011;51430;52.242;21.118;2023-06-10T11:32:50;6.50;;;3.60;;
33794;SDS011;51430;52.242;21.118;2023-06-10T11:35:24;6.80;;;3.60;;
33794;SDS011;51430;52.242;21.118;2023-06-10T11:37:54;5.80;;;3.60;;
33794;SDS011;51430;52.242;21.118;2023-06-10T11:40:23;4.40;;;3.60;;
33794;SDS011;51430;52.242;21.118;2023-06-10T11:42:51;5.50;;;3.30;;
33794;SDS011;51430;52.242;21.118;2023-06-10T11:45:20;5.90;;;3.10;;
33794;SDS011;51430;52.242;21.118;2023-06-10T11:47:59;4.30;;;3.30;;
33794;SDS011;51430;52.242;21.118;2023-06-10T11:50:31;5.00;;;3.30;;
33794;SDS011;51430;52.242;21.118;2023-06-10T11:53:00;4.10;;;3.40;;
33794;SDS011;51430;52.242;21.118;2023-06-10T11:58:37;6.00;;;3.40;;
33794;SDS011;51430;52.242;21.118;2023-06-10T12:01:56;4.90;;;3.60;;
33794;SDS011;51430;52.242;21.118;2023-06-10T12:05:09;5.70;;;3.60;;
33794;SDS011;51430;52.242;21.118;2023-06-10T12:07:48;4.40;;;3.50;;
33794;SDS011;51430;52.242;21.118;2023-06-10T12:10:19;5.60;;;3.50;;
33794;SDS011;51430;52.242;21.118;2023-06-10T12:13:16;4.50;;;3.90;;
33794;SDS011;51430;52.242;21.118;2023-06-10T12:15:47;4.80;;;4.00;;
33794;SDS011;51430;52.242;21.118;2023-06-10T12:18:28;4.40;;;3.80;;
33794;SDS011;51430;52.242;21.118;2023-06-10T12:21:14;6.80;;;4.20;;
33794;SDS011;51430;52.242;21.118;2023-06-10T12:26:38;6.30;;;4.10;;
33794;SDS011;51430;52.242;21.118;2023-06-10T12:29:21;6.00;;;4.40;;
33794;SDS011;51430;52.242;21.118;2023-06-10T12:32:01;5.50;;;3.90;;
33794;SDS011;51430;52.242;21.118;2023-06-10T12:35:02;4.40;;;3.80;;
33794;SDS011;51430;52.242;21.118;2023-06-10T12:37:32;6.20;;;4.20;;
33794;SDS011;51430;52.242;21.118;2023-06-10T12:40:09;4.50;;;4.00;;
33794;SDS011;51430;52.242;21.118;2023-06-10T12:43:03;5.10;;;3.80;;
33794;SDS011;51430;52.242;21.118;2023-06-10T12:45:36;4.90;;;4.00;;
33794;SDS011;51430;52.242;21.118;2023-06-10T12:48:36;5.30;;;4.00;;
33794;SDS011;51430;52.242;21.118;2023-06-10T12:51:25;5.10;;;4.20;;
33794;SDS011;51430;52.242;21.118;2023-06-10T12:53:54;7.40;;;3.90;;
33794;SDS011;51430;52.242;21.118;2023-06-10T12:56:28;5.60;;;3.90;;
33794;SDS011;51430;52.242;21.118;2023-06-10T12:59:16;4.50;;;3.80;;
33794;SDS011;51430;52.242;21.118;2023-06-10T13:01:47;5.10;;;3.70;;
33794;SDS011;51430;52.242;21.118;2023-06-10T13:04:38;5.30;;;3.70;;
33794;SDS011;51430;52.242;21.118;2023-06-10T13:07:07;6.50;;;3.90;;
33794;SDS011;51430;52.242;21.118;2023-06-10T13:09:59;5.20;;;4.00;;
33794;SDS011;51430;52.242;21.118;2023-06-10T13:12:31;6.30;;;3.80;;
33794;SDS011;51430;52.242;21.118;2023-06-10T13:15:14;5.70;;;4.10;;
33794;SDS011;51430;52.242;21.118;2023-06-10T13:17:54;5.30;;;4.00;;
33794;SDS011;51430;52.242;21.118;2023-06-10T13:21:02;7.30;;;4.00;;
33794;SDS011;51430;52.242;21.118;2023-06-10T13:23:51;8.40;;;4.10;;
33794;SDS011;51430;52.242;21.118;2023-06-10T13:26:27;5.10;;;4.00;;
33794;SDS011;51430;52.242;21.118;2023-06-10T13:28:59;5.40;;;4.10;;
33794;SDS011;51430;52.242;21.118;2023-06-10T13:31:33;5.30;;;4.00;;
33794;SDS011;51430;52.242;21.118;2023-06-10T13:34:05;6.20;;;4.00;;
33794;SDS011;51430;52.242;21.118;2023-06-10T13:36:36;6.40;;;4.10;;
33794;SDS011;51430;52.242;21.118;2023-06-10T13:39:16;4.10;;;3.70;;
33794;SDS011;51430;52.242;21.118;2023-06-10T13:41:48;8.20;;;3.90;;
33794;SDS011;51430;52.242;21.118;2023-06-10T13:44:17;4.20;;;3.80;;
33794;SDS011;51430;52.242;21.118;2023-06-10T13:46:46;6.50;;;4.00;;
33794;SDS011;51430;52.242;21.118;2023-06-10T13:49:18;4.70;;;4.20;;
33794;SDS011;51430;52.242;21.118;2023-06-10T13:51:48;5.60;;;4.10;;
33794;SDS011;51430;52.242;21.118;2023-06-10T13:54:17;8.40;;;4.50;;
33794;SDS011;51430;52.242;21.118;2023-06-10T13:56:45;4.90;;;3.90;;
33794;SDS011;51430;52.242;21.118;2023-06-10T13:59:15;7.30;;;4.10;;
33794;SDS011;51430;52.242;21.118;2023-06-10T14:01:47;4.20;;;3.70;;
33794;SDS011;51430;52.242;21.118;2023-06-10T14:04:19;6.80;;;4.10;;
33794;SDS011;51430;52.242;21.118;2023-06-10T14:06:50;6.00;;;3.90;;
33794;SDS011;51430;52.242;21.118;2023-06-10T14:09:19;6.40;;;4.30;;
33794;SDS011;51430;52.242;21.118;2023-06-10T14:11:50;7.90;;;4.30;;
33794;SDS011;51430;52.242;21.118;2023-06-10T14:14:20;4.80;;;4.00;;
33794;SDS011;51430;52.242;21.118;2023-06-10T14:16:49;7.00;;;3.90;;
33794;SDS011;51430;52.242;21.118;2023-06-10T14:19:17;6.20;;;4.10;;
33794;SDS011;51430;52.242;21.118;2023-06-10T14:21:46;5.90;;;4.10;;
33794;SDS011;51430;52.242;21.118;2023-06-10T14:24:14;11.00;;;4.40;;
33794;SDS011;51430;52.242;21.118;2023-06-10T14:26:42;5.70;;;3.80;;
33794;SDS011;51430;52.242;21.118;2023-06-10T14:29:10;6.20;;;4.10;;
33794;SDS011;51430;52.242;21.118;2023-06-10T14:34:15;5.70;;;4.30;;
33794;SDS011;51430;52.242;21.118;2023-06-10T14:36:43;6.20;;;4.20;;
33794;SDS011;51430;52.242;21.118;2023-06-10T14:39:11;7.30;;;4.20;;
33794;SDS011;51430;52.242;21.118;2023-06-10T14:41:48;6.50;;;4.10;;
33794;SDS011;51430;52.242;21.118;2023-06-10T14:44:16;4.70;;;3.90;;
33794;SDS011;51430;52.242;21.118;2023-06-10T14:46:52;4.50;;;3.60;;
33794;SDS011;51430;52.242;21.118;2023-06-10T14:49:26;6.40;;;4.00;;
33794;SDS011;51430;52.242;21.118;2023-06-10T14:51:54;8.60;;;4.10;;
33794;SDS011;51430;52.242;21.118;2023-06-10T14:54:23;6.70;;;4.00;;
33794;SDS011;51430;52.242;21.118;2023-06-10T14:56:50;5.90;;;3.90;;
33794;SDS011;51430;52.242;21.118;2023-06-10T14:59:22;6.40;;;3.90;;
33794;SDS011;51430;52.242;21.118;2023-06-10T15:02:01;5.50;;;4.00;;
33794;SDS011;51430;52.242;21.118;2023-06-10T15:04:29;7.40;;;3.70;;
33794;SDS011;51430;52.242;21.118;2023-06-10T15:06:59;6.90;;;4.00;;
33794;SDS011;51430;52.242;21.118;2023-06-10T15:09:33;6.30;;;4.00;;
33794;SDS011;51430;52.242;21.118;2023-06-10T15:12:23;6.30;;;3.80;;
33794;SDS011;51430;52.242;21.118;2023-06-10T15:14:52;6.90;;;4.00;;
33794;SDS011;51430;52.242;21.118;2023-06-10T15:17:20;7.40;;;4.40;;
33794;SDS011;51430;52.242;21.118;2023-06-10T15:20:14;13.00;;;4.70;;
33794;SDS011;51430;52.242;21.118;2023-06-10T15:22:43;7.60;;;4.10;;
33794;SDS011;51430;52.242;21.118;2023-06-10T15:25:11;31.00;;;6.60;;
33794;SDS011;51430;52.242;21.118;2023-06-10T15:27:45;13.20;;;5.00;;
33794;SDS011;51430;52.242;21.118;2023-06-10T15:30:13;11.80;;;4.50;;
33794;SDS011;51430;52.242;21.118;2023-06-10T15:32:43;8.00;;;3.80;;
33794;SDS011;51430;52.242;21.118;2023-06-10T15:35:11;5.40;;;4.10;;
33794;SDS011;51430;52.242;21.118;2023-06-10T15:37:41;4.70;;;3.80;;
33794;SDS011;51430;52.242;21.118;2023-06-10T15:40:15;7.50;;;4.30;;
33794;SDS011;51430;52.242;21.118;2023-06-10T15:42:43;5.20;;;4.20;;
33794;SDS011;51430;52.242;21.118;2023-06-10T15:45:12;6.80;;;4.10;;
33794;SDS011;51430;52.242;21.118;2023-06-10T15:47:41;6.30;;;4.10;;
33794;SDS011;51430;52.242;21.118;2023-06-10T15:50:36;8.30;;;4.00;;
33794;SDS011;51430;52.242;21.118;2023-06-10T15:53:33;7.40;;;4.00;;
33794;SDS011;51430;52.242;21.118;2023-06-10T15:56:02;5.80;;;4.10;;
33794;SDS011;51430;52.242;21.118;2023-06-10T15:58:31;7.40;;;4.20;;
33794;SDS011;51430;52.242;21.118;2023-06-10T16:07:35;7.30;;;4.20;;
33794;SDS011;51430;52.242;21.118;2023-06-10T16:10:02;7.50;;;4.30;;
33794;SDS011;51430;52.242;21.118;2023-06-10T16:12:31;8.70;;;4.10;;
33794;SDS011;51430;52.242;21.118;2023-06-10T16:14:59;8.30;;;4.40;;
33794;SDS011;51430;52.242;21.118;2023-06-10T16:17:31;6.50;;;4.40;;
33794;SDS011;51430;52.242;21.118;2023-06-10T16:20:00;5.60;;;4.40;;
33794;SDS011;51430;52.242;21.118;2023-06-10T16:22:28;5.70;;;4.00;;
33794;SDS011;51430;52.242;21.118;2023-06-10T16:24:57;5.50;;;4.10;;
33794;SDS011;51430;52.242;21.118;2023-06-10T16:27:26;6.80;;;4.10;;
33794;SDS011;51430;52.242;21.118;2023-06-10T16:29:53;6.90;;;4.20;;
33794;SDS011;51430;52.242;21.118;2023-06-10T16:32:20;6.80;;;4.30;;
33794;SDS011;51430;52.242;21.118;2023-06-10T16:34:47;4.70;;;3.80;;
33794;SDS011;51430;52.242;21.118;2023-06-10T16:37:15;7.00;;;4.20;;
33794;SDS011;51430;52.242;21.118;2023-06-10T16:39:42;5.70;;;4.00;;
33794;SDS011;51430;52.242;21.118;2023-06-10T16:42:09;7.10;;;4.10;;
33794;SDS011;51430;52.242;21.118;2023-06-10T16:44:37;4.70;;;4.00;;
33794;SDS011;51430;52.242;21.118;2023-06-10T16:47:03;6.80;;;4.00;;
33794;SDS011;51430;52.242;21.118;2023-06-10T16:49:31;4.60;;;4.20;;
33794;SDS011;51430;52.242;21.118;2023-06-10T16:52:01;6.20;;;3.80;;
33794;SDS011;51430;52.242;21.118;2023-06-10T16:54:29;5.10;;;4.20;;
33794;SDS011;51430;52.242;21.118;2023-06-10T16:56:56;6.10;;;4.20;;
33794;SDS011;51430;52.242;21.118;2023-06-10T16:59:23;5.90;;;4.70;;
33794;SDS011;51430;52.242;21.118;2023-06-10T17:01:50;4.70;;;4.30;;
33794;SDS011;51430;52.242;21.118;2023-06-10T17:04:17;5.60;;;4.20;;
33794;SDS011;51430;52.242;21.118;2023-06-10T17:06:44;6.00;;;3.80;;
33794;SDS011;51430;52.242;21.118;2023-06-10T17:09:11;7.30;;;3.70;;
33794;SDS011;51430;52.242;21.118;2023-06-10T17:11:38;6.30;;;3.80;;
33794;SDS011;51430;52.242;21.118;2023-06-10T17:14:05;5.90;;;3.30;;
33794;SDS011;51430;52.242;21.118;2023-06-10T17:16:32;6.30;;;3.50;;
33794;SDS011;51430;52.242;21.118;2023-06-10T17:18:59;4.30;;;3.60;;
33794;SDS011;51430;52.242;21.118;2023-06-10T17:21:26;8.30;;;3.70;;
33794;SDS011;51430;52.242;21.118;2023-06-10T17:23:53;6.50;;;3.80;;
33794;SDS011;51430;52.242;21.118;2023-06-10T17:26:20;7.10;;;4.00;;
33794;SDS011;51430;52.242;21.118;2023-06-10T17:28:48;5.10;;;3.70;;
33794;SDS011;51430;52.242;21.118;2023-06-10T17:31:14;7.90;;;4.40;;
33794;SDS011;51430;52.242;21.118;2023-06-10T17:33:41;4.10;;;3.60;;
33794;SDS011;51430;52.242;21.118;2023-06-10T17:36:08;6.70;;;3.80;;
33794;SDS011;51430;52.242;21.118;2023-06-10T17:38:34;7.40;;;4.40;;
33794;SDS011;51430;52.242;21.118;2023-06-10T17:41:01;6.10;;;4.10;;
33794;SDS011;51430;52.242;21.118;2023-06-10T17:43:28;4.70;;;3.80;;
33794;SDS011;51430;52.242;21.118;2023-06-10T17:45:55;7.00;;;4.20;;
33794;SDS011;51430;52.242;21.118;2023-06-10T17:48:24;7.70;;;4.40;;
33794;SDS011;51430;52.242;21.118;2023-06-10T17:50:51;7.20;;;4.90;;
33794;SDS011;51430;52.242;21.118;2023-06-10T17:53:18;6.00;;;4.70;;
33794;SDS011;51430;52.242;21.118;2023-06-10T17:55:48;8.80;;;5.40;;
33794;SDS011;51430;52.242;21.118;2023-06-10T17:58:15;8.50;;;6.70;;
33794;SDS011;51430;52.242;21.118;2023-06-10T18:00:42;7.50;;;5.30;;
33794;SDS011;51430;52.242;21.118;2023-06-10T18:03:09;5.40;;;4.80;;
33794;SDS011;51430;52.242;21.118;2023-06-10T18:05:36;7.30;;;5.10;;
33794;SDS011;51430;52.242;21.118;2023-06-10T18:08:02;6.30;;;5.50;;
33794;SDS011;51430;52.242;21.118;2023-06-10T18:10:29;10.10;;;7.10;;
33794;SDS011;51430;52.242;21.118;2023-06-10T18:12:56;8.10;;;6.30;;
33794;SDS011;51430;52.242;21.118;2023-06-10T18:15:23;9.10;;;6.10;;
33794;SDS011;51430;52.242;21.118;2023-06-10T18:17:50;7.90;;;5.80;;
33794;SDS011;51430;52.242;21.118;2023-06-10T18:20:20;7.20;;;6.20;;
33794;SDS011;51430;52.242;21.118;2023-06-10T18:22:59;7.10;;;5.60;;
33794;SDS011;51430;52.242;21.118;2023-06-10T18:25:26;6.00;;;5.40;;
33794;SDS011;51430;52.242;21.118;2023-06-10T18:27:53;5.80;;;5.30;;